CheckWX is a tool to help pilots better visualize weather data.  It is not intended as a substitute for an official pre-flight weather briefing.

01:16:25 UTC

KMKN METAR
Comanche County-City Airport
Comanche, Texas, USA
Current

15 mins ago

KMKN 300101Z AUTO 05003KT 10SM CLR 26/14 A3014 RMK AO2
Observed
May-30 @ 01:01 UTC
Wind
  • 050° at 3 KTS
Visibility
Flight Rules
VFR
Cloud Levels
  • Clear skies
Temperature
26°C / 79°F
Dewpoint
14°C / 57°F
Humidity
48%
Altimeter
30.14" Hg
Pressure
1020.62 hPa
Previous

32 mins ago

KMKN 300044Z AUTO 06003KT 10SM CLR 27/14 A3014 RMK AO2
Observed
May-30 @ 00:44 UTC
Wind
  • 060° at 3 KTS
Visibility
Flight Rules
VFR
Cloud Levels
  • Clear skies
Temperature
27°C / 81°F
Dewpoint
14°C / 57°F
Humidity
45%
Altimeter
30.14" Hg
Pressure
1020.62 hPa
Previous

54 mins ago

KMKN 300022Z AUTO 05004KT 10SM CLR 27/13 A3014 RMK AO2
Observed
May-30 @ 00:22 UTC
Wind
  • 050° at 4 KTS
Visibility
Flight Rules
VFR
Cloud Levels
  • Clear skies
Temperature
27°C / 81°F
Dewpoint
13°C / 55°F
Humidity
42%
Altimeter
30.14" Hg
Pressure
1020.62 hPa